Flight Track Log - Related Links

Times and Time Zones

All times are in EDT time to prevent confusion due to time zone crossing. See the EJA922 flight status page for this flight to view local times or setup timezone preferences in your user account.

Time Position Orientation Groundspeed Altitude Reporting Facility
EDT Latitude Longitude Course Direction KTS MPH feet Rate Location/Type
Sun 03:30:21 PM 41.6994 -84.1683 281° West 283 326 11,600  Level Cleveland Center
Sun 03:31:21 PM 41.7589 -84.2661 309° West 303 349 14,700 2,950 Climbing Cleveland Center
Sun 03:32:21 PM 41.8206 -84.3589 312° West 340 391 17,500 2,650 Climbing Cleveland Center
Sun 03:33:21 PM 41.8858 -84.4661 309° West 359 413 20,000 1,250 Climbing Cleveland Center
Sun 03:34:21 PM 41.9528 -84.5789 309° West 371 427 20,000  Level Cleveland Center
Sun 03:35:00 PM 41.7444 -84.9125 281° West  Level Estimated
Sun 03:35:20 PM 42.0239 -84.6953 309° West 390 449 20,000  Level Cleveland Center
Sun 03:36:21 PM 42.0839 -84.8222 303° West 400 460 20,000  Level Cleveland Center
Sun 03:37:30 PM 42.1350 -85.0008 291° West 413 475 20,000  Level Chicago Center
Sun 03:38:32 PM 42.1778 -85.1447 292° West 415 478 20,000  Level Chicago Center
Sun 03:39:34 PM 42.2219 -85.2892 292° West 416 479 20,000  Level Chicago Center
Sun 03:40:36 PM 42.2669 -85.4375 292° West 425 489 20,000  Level Chicago Center
Sun 03:41:38 PM 42.3106 -85.5869 292° West 428 493 20,000  Level Chicago Center
Sun 03:42:40 PM 42.3550 -85.7283 293° West 415 478 20,000  Level Chicago Center
Sun 03:43:42 PM 42.3972 -85.8708 292° West 410 472 20,000  Level Chicago Center
Sun 03:44:44 PM 42.4469 -86.0422 292° West 408 470 20,000  Level Chicago Center
Sun 03:45:46 PM 42.4608 -86.1936 277° West 414 476 20,000  Level Chicago Center
Sun 03:46:48 PM 42.4522 -86.3508 266° West 418 481 20,000 -145 Level Chicago Center
Sun 03:47:50 PM 42.4442 -86.5053 266° West 413 475 19,700 -1,258 Descending Chicago Center
Sun 03:48:52 PM 42.4378 -86.6228 266° West 324 373 17,400 -2,160 Descending Chicago Center
Sun 03:49:55 PM 42.4314 -86.7328 266° West 295 339 15,200 -2,352 Descending Chicago Center
Sun 03:50:57 PM 42.4236 -86.8600 265° West 284 327 12,500 -2,419 Descending Chicago Center
Sun 03:51:59 PM 42.4172 -86.9644 265° West 280 322 10,200 -2,129 Descending Chicago Center
Sun 03:53:01 PM 42.4114 -87.0644 266° West 271 312 8,100 -2,081 Descending Chicago Center
Sun 03:54:03 PM 42.4061 -87.1642 266° West 268 308 5,900 -1,984 Descending Chicago Center
Sun 03:55:05 PM 42.4003 -87.2600 265° West 260 299 4,000 -1,306 Descending Chicago Center
Sun 03:56:07 PM 42.3961 -87.3706 267° West 257 296 3,200 -355 Descending Chicago Center
Sun 03:57:54 PM 42.3500 -87.5167 247° West 251 289 3,000 -75 Descending Chicago TRACON
Sun 03:58:48 PM 42.3333 -87.6000 255° West 245 282 3,000  Level Chicago TRACON
Sun 03:59:54 PM 42.3167 -87.6833 255° West 211 243 3,000  Level Chicago TRACON
Sun 04:00:54 PM 42.3167 -87.7500 270° West 197 227 3,000  Level Chicago TRACON
Sun 04:01:54 PM 42.3000 -87.8333 255° West 201 231 3,000  Level Chicago TRACON
Sun 04:02:48 PM 42.2833 -87.9000 251° West 197 227 3,000 -261 Level Chicago TRACON
Sun 04:03:49 PM 42.2833 -87.9667 270° West 189 217 2,500 -248 Descending Chicago TRACON
Sun 04:04:49 PM 42.2500 -87.9833 200° South 207 238 2,500 -50 Level Chicago TRACON
Sun 04:05:49 PM 42.2000 -87.9500 154° Southeast 180 207 2,400 73 Descending Chicago TRACON
Sun 04:07:00 PM 42.1143 -87.9015 169° South  Level Estimated
Sun 04:14:00 PM 42.1143 -87.9015 169° South  Level Estimated
Sun 04:54:17 PM 42.1983 -87.7919 65° Northeast 290 334 6,100  Level Chicago Center
Sun 04:55:19 PM 42.1806 -87.6917 103° East 294 338 9,200 3,097 Climbing Chicago Center
Sun 04:56:21 PM 42.1706 -87.5733 96° East 314 361 12,500 2,565 Climbing Chicago Center
Sun 04:57:23 PM 42.1689 -87.4406 91° East 352 405 14,500 2,323 Climbing Chicago Center
Sun 04:58:25 PM 42.1700 -87.2586 89° East 408 470 17,300 2,371 Climbing Chicago Center
Sun 04:59:27 PM 42.1667 -87.0997 92° East 422 486 19,400 2,032 Climbing Chicago Center

Login

Don't have an account? Register now (free) for customized features, flight alerts, and more!